createdAt,value
2023-05-25T00:01:36.355Z,47.30
2023-05-25T00:03:40.381Z,47.20
2023-05-25T00:05:42.514Z,47.30
2023-05-25T00:07:44.407Z,47.30
2023-05-25T00:09:46.635Z,47.30
2023-05-25T00:11:48.458Z,47.40
2023-05-25T00:13:50.631Z,47.50
2023-05-25T00:15:52.301Z,47.50
2023-05-25T00:17:55.444Z,47.60
2023-05-25T00:19:58.062Z,47.80
2023-05-25T00:22:02.204Z,47.70
2023-05-25T00:24:06.940Z,47.80
2023-05-25T00:26:08.682Z,47.70
2023-05-25T00:28:11.056Z,47.80
2023-05-25T00:30:13.207Z,47.70
2023-05-25T00:32:15.013Z,47.70
2023-05-25T00:34:17.042Z,47.80
2023-05-25T00:36:18.764Z,47.90
2023-05-25T00:38:20.980Z,48.00
2023-05-25T00:40:22.770Z,47.90
2023-05-25T00:42:24.595Z,47.80
2023-05-25T00:44:27.616Z,48.00
2023-05-25T00:46:29.699Z,48.20
2023-05-25T00:48:31.491Z,48.30
2023-05-25T00:50:40.586Z,48.40
2023-05-25T00:52:42.712Z,48.60
2023-05-25T00:54:47.660Z,48.50
2023-05-25T00:57:04.252Z,48.60
2023-05-25T00:59:06.872Z,48.80
2023-05-25T01:01:11.920Z,48.80
2023-05-25T01:03:17.627Z,48.80
2023-05-25T01:05:21.162Z,48.90
2023-05-25T01:07:25.142Z,48.90
2023-05-25T01:09:30.092Z,48.90
2023-05-25T01:11:32.719Z,49.00
2023-05-25T01:13:34.465Z,49.00
2023-05-25T01:15:37.810Z,48.90
2023-05-25T01:17:40.041Z,49.10
2023-05-25T01:19:49.537Z,49.00
2023-05-25T01:22:15.674Z,49.00
2023-05-25T01:24:36.484Z,49.30
2023-05-25T01:26:49.379Z,49.20
2023-05-25T01:28:53.094Z,49.20
2023-05-25T01:30:56.372Z,49.30
2023-05-25T01:32:59.466Z,49.50
2023-05-25T01:35:01.367Z,49.50
2023-05-25T01:37:03.123Z,49.60
2023-05-25T01:39:05.736Z,49.70
2023-05-25T01:41:07.487Z,49.60
2023-05-25T01:43:09.227Z,49.70
2023-05-25T01:45:12.413Z,49.70
2023-05-25T01:47:23.304Z,49.90
2023-05-25T01:49:24.990Z,49.90
2023-05-25T01:51:32.345Z,49.80
2023-05-25T01:53:36.633Z,49.80
2023-05-25T01:55:41.958Z,49.90
2023-05-25T01:57:46.195Z,50.00
2023-05-25T01:59:49.469Z,50.10
2023-05-25T02:01:53.591Z,50.10
2023-05-25T02:03:56.459Z,50.20
2023-05-25T02:05:58.206Z,50.00
2023-05-25T02:07:59.901Z,50.10
2023-05-25T02:10:05.589Z,50.30
2023-05-25T02:12:07.497Z,50.30
2023-05-25T02:14:10.915Z,50.30
2023-05-25T02:16:12.673Z,50.40
2023-05-25T02:18:19.185Z,50.30
2023-05-25T02:20:20.960Z,50.50
2023-05-25T02:22:22.789Z,50.40
2023-05-25T02:24:24.927Z,50.20
2023-05-25T02:26:28.074Z,50.20
2023-05-25T02:28:30.131Z,50.20
2023-05-25T02:30:31.794Z,50.50
2023-05-25T02:32:33.789Z,50.30
2023-05-25T02:34:36.861Z,50.10
2023-05-25T02:36:39.469Z,50.00
2023-05-25T02:38:41.348Z,50.10
2023-05-25T02:40:45.649Z,49.90
2023-05-25T02:42:47.962Z,49.90
2023-05-25T02:44:49.680Z,49.80
2023-05-25T02:46:51.447Z,49.70
2023-05-25T02:48:53.137Z,49.80
2023-05-25T02:50:54.863Z,49.80
2023-05-25T02:52:56.615Z,49.90
2023-05-25T02:54:58.399Z,49.90
2023-05-25T02:57:06.374Z,49.90
2023-05-25T02:59:08.164Z,50.10
2023-05-25T03:01:10.773Z,50.00
2023-05-25T03:03:17.177Z,50.10
2023-05-25T03:05:18.920Z,50.00
2023-05-25T03:07:21.365Z,49.90
2023-05-25T03:09:23.312Z,50.10
2023-05-25T03:11:25.292Z,50.10
2023-05-25T03:13:26.976Z,50.10
2023-05-25T03:15:28.684Z,50.10
2023-05-25T03:17:30.759Z,50.60
2023-05-25T03:19:33.542Z,50.20
2023-05-25T03:21:35.378Z,50.30
2023-05-25T03:23:37.056Z,50.40
2023-05-25T03:25:42.928Z,50.40
2023-05-25T03:27:45.385Z,50.30
2023-05-25T03:29:50.585Z,50.50
2023-05-25T03:31:52.279Z,50.40
2023-05-25T03:33:55.954Z,50.40
2023-05-25T03:35:58.273Z,50.40
2023-05-25T03:37:59.942Z,50.60
2023-05-25T03:40:01.785Z,50.60
2023-05-25T03:42:06.439Z,50.60
2023-05-25T03:44:08.297Z,50.50
2023-05-25T03:46:11.625Z,50.50
2023-05-25T03:48:13.443Z,50.60
2023-05-25T03:50:15.679Z,51.00
2023-05-25T03:52:17.329Z,51.00
2023-05-25T03:54:19.018Z,50.80
2023-05-25T03:56:23.154Z,50.60
2023-05-25T03:58:24.854Z,50.70
2023-05-25T04:00:28.098Z,51.20
2023-05-25T04:02:29.943Z,50.90
2023-05-25T04:04:31.725Z,51.30
2023-05-25T04:06:34.004Z,50.70
2023-05-25T04:08:35.660Z,51.00
2023-05-25T04:10:39.273Z,51.10
2023-05-25T04:12:40.997Z,51.00
2023-05-25T04:14:43.475Z,51.00
2023-05-25T04:16:46.014Z,51.10
2023-05-25T04:18:49.326Z,51.00
2023-05-25T04:20:51.147Z,51.10
2023-05-25T04:22:56.655Z,51.10
2023-05-25T04:24:58.399Z,51.30
2023-05-25T04:27:02.224Z,51.00
2023-05-25T04:29:03.982Z,51.20
2023-05-25T04:31:18.498Z,51.40
2023-05-25T04:33:38.594Z,51.20
2023-05-25T04:35:54.349Z,51.10
2023-05-25T04:37:56.812Z,51.20
2023-05-25T04:39:59.488Z,51.10
2023-05-25T04:42:04.361Z,51.30
2023-05-25T04:44:10.230Z,51.30
2023-05-25T04:46:22.138Z,51.30
2023-05-25T04:48:34.205Z,51.30
2023-05-25T04:50:36.096Z,51.30
2023-05-25T04:52:38.934Z,51.40
2023-05-25T04:54:41.777Z,51.30
2023-05-25T04:56:44.047Z,51.40
2023-05-25T04:58:45.963Z,51.40
2023-05-25T05:00:48.929Z,51.30
2023-05-25T05:02:52.497Z,51.30
2023-05-25T05:04:55.175Z,51.30
2023-05-25T05:06:59.117Z,51.30
2023-05-25T05:09:03.424Z,51.10
2023-05-25T05:11:05.292Z,51.20
2023-05-25T05:13:07.088Z,51.30
2023-05-25T05:15:08.953Z,51.40
2023-05-25T05:17:11.973Z,51.10
2023-05-25T05:19:13.973Z,51.20
2023-05-25T05:21:16.097Z,51.50
2023-05-25T05:23:17.812Z,51.40
2023-05-25T05:25:19.532Z,51.50
2023-05-25T05:27:21.325Z,51.40
2023-05-25T05:29:28.808Z,51.30
2023-05-25T05:31:31.633Z,51.50
2023-05-25T05:33:33.728Z,51.30
2023-05-25T05:35:36.826Z,51.30
2023-05-25T05:37:47.785Z,51.30
2023-05-25T05:39:52.266Z,51.30
2023-05-25T05:41:54.295Z,51.20
2023-05-25T05:43:55.987Z,51.40
2023-05-25T05:45:57.674Z,51.30
2023-05-25T05:47:59.366Z,51.40
2023-05-25T05:50:02.092Z,51.40
2023-05-25T05:52:05.206Z,51.50
2023-05-25T05:54:07.149Z,51.60
2023-05-25T05:56:16.883Z,51.60
2023-05-25T05:58:18.629Z,51.50
2023-05-25T06:00:20.638Z,51.50
2023-05-25T06:02:22.461Z,51.70
2023-05-25T06:04:28.460Z,51.70
2023-05-25T06:06:30.638Z,51.60
2023-05-25T06:08:32.493Z,51.60
2023-05-25T06:10:34.788Z,51.60
2023-05-25T06:12:36.582Z,51.60
2023-05-25T06:14:38.398Z,51.60
2023-05-25T06:16:41.096Z,51.80
2023-05-25T06:18:42.917Z,51.70
2023-05-25T06:20:45.078Z,51.80
2023-05-25T06:22:46.912Z,51.60
2023-05-25T06:24:48.635Z,51.70
2023-05-25T06:26:50.495Z,51.60
2023-05-25T06:28:52.561Z,51.60
2023-05-25T06:30:54.330Z,51.60
2023-05-25T06:32:56.657Z,51.70
2023-05-25T06:34:58.507Z,51.80
2023-05-25T06:37:00.340Z,52.00
2023-05-25T06:39:02.132Z,51.90
2023-05-25T06:41:05.469Z,51.80
2023-05-25T06:43:07.755Z,52.00
2023-05-25T06:45:17.466Z,52.20
2023-05-25T06:47:19.193Z,52.00
2023-05-25T06:49:22.078Z,52.20
2023-05-25T06:51:24.038Z,52.00
2023-05-25T06:53:25.753Z,52.00
2023-05-25T06:55:27.400Z,52.00
2023-05-25T06:57:29.161Z,52.00
2023-05-25T06:59:31.057Z,52.00
2023-05-25T07:01:32.951Z,51.80
2023-05-25T07:03:34.795Z,51.80
2023-05-25T07:05:36.588Z,51.90
2023-05-25T07:07:38.352Z,51.90
2023-05-25T07:09:40.173Z,51.70
2023-05-25T07:11:41.931Z,51.70
2023-05-25T07:13:43.621Z,51.70
2023-05-25T07:15:45.618Z,51.60
2023-05-25T07:17:47.494Z,51.60
2023-05-25T07:19:50.039Z,51.50
2023-05-25T07:21:51.851Z,51.60
2023-05-25T07:23:53.575Z,51.50
2023-05-25T07:25:55.305Z,51.40
2023-05-25T07:27:57.034Z,51.40
2023-05-25T07:29:58.705Z,51.60
2023-05-25T07:32:00.417Z,51.50
2023-05-25T07:34:02.141Z,51.40
2023-05-25T07:36:04.038Z,51.50
2023-05-25T07:38:05.813Z,51.40
2023-05-25T07:40:07.980Z,51.40
2023-05-25T07:42:11.032Z,51.40
2023-05-25T07:44:12.712Z,52.00
2023-05-25T07:46:14.669Z,51.30
2023-05-25T07:48:16.503Z,51.40
2023-05-25T07:50:18.768Z,51.20
2023-05-25T07:52:21.084Z,51.20
2023-05-25T07:54:22.872Z,51.20
2023-05-25T07:56:24.906Z,51.30
2023-05-25T07:58:26.584Z,51.30
2023-05-25T08:00:30.811Z,51.20
2023-05-25T08:02:32.789Z,51.20
2023-05-25T08:04:35.650Z,51.20
2023-05-25T08:06:37.545Z,51.10
2023-05-25T08:08:39.264Z,51.10
2023-05-25T08:10:41.177Z,51.00
2023-05-25T08:12:49.552Z,51.00
2023-05-25T08:14:52.066Z,51.60
2023-05-25T08:16:53.866Z,50.90
2023-05-25T08:18:55.730Z,50.90
2023-05-25T08:20:57.853Z,50.80
2023-05-25T08:22:59.763Z,50.80
2023-05-25T08:25:03.186Z,50.70
2023-05-25T08:27:05.072Z,50.70
2023-05-25T08:29:06.865Z,50.70
2023-05-25T08:31:08.658Z,50.70
2023-05-25T08:33:10.720Z,50.80
2023-05-25T08:35:14.272Z,50.80
2023-05-25T08:37:16.512Z,50.70
2023-05-25T08:39:18.824Z,50.60
2023-05-25T08:41:23.579Z,50.60
2023-05-25T08:43:25.352Z,50.60
2023-05-25T08:47:36.873Z,50.40
2023-05-25T08:49:39.055Z,50.50
2023-05-25T08:51:47.892Z,50.50
2023-05-25T08:53:50.103Z,50.50
2023-05-25T08:55:54.142Z,50.40
2023-05-25T08:58:02.781Z,50.50
2023-05-25T09:00:15.518Z,50.40
2023-05-25T09:02:17.430Z,50.20
2023-05-25T09:04:21.178Z,50.10
2023-05-25T09:06:24.128Z,50.10
2023-05-25T09:08:27.167Z,50.10
2023-05-25T09:10:29.666Z,50.20
2023-05-25T09:12:31.782Z,50.10
2023-05-25T09:14:34.451Z,50.20
2023-05-25T09:16:37.348Z,50.20
2023-05-25T09:18:40.196Z,50.20
2023-05-25T09:20:44.263Z,50.20
2023-05-25T09:22:48.014Z,50.20
2023-05-25T09:24:49.875Z,50.10
2023-05-25T09:26:51.781Z,50.00
2023-05-25T09:28:53.539Z,50.10
2023-05-25T09:30:56.003Z,50.10
2023-05-25T09:33:08.780Z,50.00
2023-05-25T09:35:11.842Z,50.00
2023-05-25T09:37:14.457Z,50.00
2023-05-25T09:39:17.142Z,49.80
2023-05-25T09:41:19.099Z,49.40
2023-05-25T09:43:39.189Z,49.40
2023-05-25T09:45:43.248Z,49.70
2023-05-25T09:47:44.977Z,49.80
2023-05-25T09:49:47.810Z,49.70
2023-05-25T09:51:49.610Z,49.80
2023-05-25T09:53:51.408Z,49.40
2023-05-25T09:55:54.485Z,49.70
2023-05-25T09:57:56.939Z,49.70
2023-05-25T09:59:58.832Z,49.70
2023-05-25T10:02:01.220Z,49.60
2023-05-25T10:04:05.200Z,49.70
2023-05-25T10:06:07.758Z,49.70
2023-05-25T10:08:10.514Z,49.70
2023-05-25T10:10:16.098Z,49.60
2023-05-25T10:12:19.099Z,49.50
2023-05-25T10:14:25.904Z,50.20
2023-05-25T10:16:31.319Z,50.20
2023-05-25T10:18:35.916Z,49.20
2023-05-25T10:20:38.162Z,49.50
2023-05-25T10:22:43.069Z,49.60
2023-05-25T10:24:47.818Z,49.60
2023-05-25T10:26:50.934Z,49.40
2023-05-25T10:28:56.121Z,48.70
2023-05-25T10:30:58.638Z,49.00
2023-05-25T10:33:02.285Z,49.10
2023-05-25T10:35:05.385Z,49.30
2023-05-25T10:37:07.643Z,49.20
2023-05-25T10:39:09.654Z,49.30
2023-05-25T10:41:11.619Z,49.40
2023-05-25T10:43:13.906Z,49.10
2023-05-25T10:45:16.808Z,48.20
2023-05-25T10:47:18.865Z,49.00
2023-05-25T10:49:36.144Z,48.70
2023-05-25T10:51:38.814Z,49.00
2023-05-25T10:53:44.056Z,49.00
2023-05-25T10:55:48.516Z,49.20
2023-05-25T10:58:06.785Z,48.90
2023-05-25T11:00:10.263Z,48.90
2023-05-25T11:02:12.404Z,48.50
2023-05-25T11:04:17.762Z,48.00
2023-05-25T11:06:23.574Z,48.40
2023-05-25T11:08:45.276Z,48.90
2023-05-25T11:10:49.833Z,48.70
2023-05-25T11:12:51.653Z,48.40
2023-05-25T11:15:09.207Z,48.50
2023-05-25T11:17:11.922Z,48.60
2023-05-25T11:19:16.764Z,48.70
2023-05-25T11:21:27.641Z,48.60
2023-05-25T11:23:30.066Z,48.70
2023-05-25T11:25:36.631Z,48.60
2023-05-25T11:27:46.266Z,48.40
2023-05-25T11:29:51.006Z,48.40
2023-05-25T11:31:54.326Z,47.70
2023-05-25T11:33:57.448Z,47.10
2023-05-25T11:36:00.150Z,47.90
2023-05-25T11:38:02.803Z,47.60
2023-05-25T11:40:07.017Z,47.70
2023-05-25T11:42:11.147Z,48.00
2023-05-25T11:44:13.923Z,48.00
2023-05-25T11:46:16.361Z,47.90
2023-05-25T11:48:19.092Z,47.70
2023-05-25T11:50:21.393Z,48.00
2023-05-25T11:52:23.252Z,48.30
2023-05-25T11:54:25.700Z,47.60
2023-05-25T11:56:35.472Z,48.10
2023-05-25T11:58:37.697Z,47.30
2023-05-25T12:00:39.402Z,45.80
2023-05-25T12:02:41.951Z,46.70
2023-05-25T12:04:54.385Z,46.90
2023-05-25T12:07:03.548Z,46.20
2023-05-25T12:09:10.948Z,45.30
2023-05-25T12:11:13.410Z,46.40
2023-05-25T12:13:15.215Z,46.50
2023-05-25T12:15:20.728Z,46.50
2023-05-25T12:17:22.859Z,46.40
2023-05-25T12:19:24.674Z,46.30
2023-05-25T12:21:26.480Z,46.10
2023-05-25T12:23:28.233Z,46.50
2023-05-25T12:25:46.049Z,46.80
2023-05-25T12:28:11.123Z,46.30
2023-05-25T12:30:13.018Z,46.70
2023-05-25T12:32:15.122Z,46.10
2023-05-25T12:34:17.634Z,46.00
2023-05-25T12:36:35.608Z,45.50
2023-05-25T12:38:37.320Z,45.70
2023-05-25T12:40:39.144Z,45.80
2023-05-25T12:42:40.935Z,44.90
2023-05-25T12:44:43.203Z,45.60
2023-05-25T12:46:45.022Z,45.70
2023-05-25T12:48:46.745Z,45.80
2023-05-25T12:50:58.415Z,45.60
2023-05-25T12:53:01.248Z,45.90
2023-05-25T12:55:21.842Z,45.60
2023-05-25T12:57:33.818Z,44.90
2023-05-25T12:59:37.039Z,44.80
2023-05-25T13:01:40.587Z,45.40
2023-05-25T13:03:42.354Z,44.60
2023-05-25T13:05:46.411Z,42.40
2023-05-25T13:07:48.712Z,44.10
2023-05-25T13:09:50.514Z,44.40
2023-05-25T13:11:52.870Z,42.80
2023-05-25T13:13:54.684Z,42.20
2023-05-25T13:15:58.167Z,42.40
2023-05-25T13:18:00.200Z,43.60
2023-05-25T13:20:02.184Z,43.50
2023-05-25T13:22:04.144Z,43.70
2023-05-25T13:24:05.952Z,44.10
2023-05-25T13:26:07.748Z,41.70
2023-05-25T13:28:09.529Z,43.40
2023-05-25T13:30:11.986Z,43.10
2023-05-25T13:32:13.855Z,43.40
2023-05-25T13:34:15.754Z,43.10
2023-05-25T13:36:17.495Z,43.20
2023-05-25T13:38:19.650Z,43.80
2023-05-25T13:40:21.491Z,43.70
2023-05-25T13:42:23.281Z,43.70
2023-05-25T13:44:25.059Z,42.40
2023-05-25T13:48:35.169Z,43.20
2023-05-25T13:50:37.036Z,42.70
2023-05-25T13:52:38.775Z,43.20
2023-05-25T13:54:40.571Z,43.10
2023-05-25T13:56:42.604Z,42.60
2023-05-25T13:58:44.463Z,42.90
2023-05-25T14:00:46.599Z,43.10
2023-05-25T14:02:48.571Z,43.60
2023-05-25T14:04:50.360Z,42.30
2023-05-25T14:06:52.096Z,42.30
2023-05-25T14:08:53.869Z,42.00
2023-05-25T14:10:55.672Z,41.30
2023-05-25T14:12:57.391Z,41.40
2023-05-25T14:14:59.162Z,42.70
2023-05-25T14:17:01.310Z,40.50
2023-05-25T14:19:03.955Z,42.00
2023-05-25T14:21:05.721Z,41.00
2023-05-25T14:23:07.563Z,41.50
2023-05-25T14:25:09.439Z,40.30
2023-05-25T14:27:11.255Z,41.00
2023-05-25T14:29:13.111Z,41.50
2023-05-25T14:31:14.974Z,41.20
2023-05-25T14:33:17.410Z,41.30
2023-05-25T14:35:19.410Z,41.50
2023-05-25T14:37:21.260Z,41.70
2023-05-25T14:39:23.099Z,41.20
2023-05-25T14:41:24.800Z,39.40
2023-05-25T14:43:26.561Z,40.10
2023-05-25T14:45:28.329Z,40.10
2023-05-25T14:47:30.065Z,40.20
2023-05-25T14:49:32.381Z,40.80
2023-05-25T14:51:34.097Z,40.50
2023-05-25T14:53:35.946Z,39.90
2023-05-25T14:55:37.691Z,39.60
2023-05-25T14:57:39.410Z,39.70
2023-05-25T14:59:41.235Z,40.40
2023-05-25T15:01:43.089Z,40.50
2023-05-25T15:03:45.004Z,40.40
2023-05-25T15:05:46.946Z,40.20
2023-05-25T15:07:48.747Z,39.80
2023-05-25T15:09:50.459Z,39.70
2023-05-25T15:11:52.321Z,38.80
2023-05-25T15:13:54.121Z,38.30
2023-05-25T15:15:57.678Z,39.00
2023-05-25T15:17:59.575Z,40.30
2023-05-25T15:20:01.443Z,39.30
2023-05-25T15:22:03.657Z,40.10
2023-05-25T15:24:05.555Z,39.80
2023-05-25T15:26:08.205Z,38.60
2023-05-25T15:28:10.309Z,39.60
2023-05-25T15:30:12.128Z,39.10
2023-05-25T15:32:17.622Z,39.90
2023-05-25T15:34:19.832Z,40.00
2023-05-25T15:36:21.525Z,40.10
2023-05-25T15:38:23.290Z,39.80
2023-05-25T15:40:25.098Z,39.60
2023-05-25T15:42:26.877Z,39.10
2023-05-25T15:44:30.181Z,39.80
2023-05-25T15:46:31.860Z,38.40
2023-05-25T15:48:33.643Z,38.00
2023-05-25T15:50:35.848Z,39.10
2023-05-25T15:52:37.618Z,36.50
2023-05-25T15:54:39.694Z,38.30
2023-05-25T15:56:41.608Z,38.90
2023-05-25T15:58:46.973Z,38.80
2023-05-25T16:00:48.758Z,38.60
2023-05-25T16:02:50.570Z,39.10
2023-05-25T16:04:52.483Z,38.40
2023-05-25T16:06:54.227Z,38.30
2023-05-25T16:08:58.662Z,37.10
2023-05-25T16:11:00.411Z,38.00
2023-05-25T16:13:02.151Z,36.50
2023-05-25T16:15:04.060Z,37.40
2023-05-25T16:17:05.780Z,37.60
2023-05-25T16:19:07.787Z,37.60
2023-05-25T16:21:09.577Z,37.60
2023-05-25T16:23:11.287Z,36.80
2023-05-25T16:25:13.009Z,37.60
2023-05-25T16:27:14.745Z,38.10
2023-05-25T16:29:16.516Z,36.70
2023-05-25T16:31:18.391Z,35.50
2023-05-25T16:33:20.338Z,37.50
2023-05-25T16:35:22.205Z,37.50
2023-05-25T16:37:23.953Z,38.00
2023-05-25T16:39:25.677Z,37.50
2023-05-25T16:41:27.536Z,36.80
2023-05-25T16:43:29.355Z,37.90
2023-05-25T16:45:31.060Z,37.80
2023-05-25T16:47:32.832Z,37.50
2023-05-25T16:49:34.648Z,37.30
2023-05-25T16:51:37.701Z,37.40
2023-05-25T16:53:39.470Z,36.70
2023-05-25T16:55:41.314Z,36.70
2023-05-25T16:57:43.024Z,36.90
2023-05-25T16:59:45.583Z,37.00
2023-05-25T17:01:47.414Z,36.90
2023-05-25T17:03:49.312Z,36.90
2023-05-25T17:05:53.734Z,37.10
2023-05-25T17:07:55.705Z,37.00
2023-05-25T17:09:57.461Z,36.70
2023-05-25T17:12:01.155Z,37.00
2023-05-25T17:14:02.854Z,37.20
2023-05-25T17:16:04.765Z,37.30
2023-05-25T17:18:06.710Z,37.30
2023-05-25T17:20:08.765Z,36.90
2023-05-25T17:22:10.777Z,37.20
2023-05-25T17:24:12.479Z,36.90
2023-05-25T17:26:14.168Z,37.20
2023-05-25T17:28:15.962Z,37.40
2023-05-25T17:30:17.734Z,37.40
2023-05-25T17:32:19.552Z,37.50
2023-05-25T17:34:21.368Z,37.40
2023-05-25T17:36:23.456Z,37.70
2023-05-25T17:38:26.073Z,37.80
2023-05-25T17:40:27.807Z,37.60
2023-05-25T17:42:29.585Z,38.00
2023-05-25T17:44:31.337Z,38.00
2023-05-25T17:46:33.147Z,38.00
2023-05-25T17:48:35.000Z,37.90
2023-05-25T17:50:36.923Z,38.10
2023-05-25T17:52:38.793Z,38.20
2023-05-25T17:54:40.759Z,38.30
2023-05-25T17:56:42.566Z,38.40
2023-05-25T17:58:47.324Z,38.60
2023-05-25T18:00:49.848Z,38.80
2023-05-25T18:02:52.210Z,38.90
2023-05-25T18:04:54.069Z,39.10
2023-05-25T18:06:55.901Z,39.90
2023-05-25T18:08:57.679Z,39.20
2023-05-25T18:10:59.456Z,39.30
2023-05-25T18:13:01.311Z,39.40
2023-05-25T18:15:03.333Z,39.50
2023-05-25T18:17:05.488Z,39.70
2023-05-25T18:19:07.407Z,39.70
2023-05-25T18:21:09.192Z,39.90
2023-05-25T18:23:13.222Z,40.20
2023-05-25T18:25:14.962Z,40.30
2023-05-25T18:27:16.725Z,40.30
2023-05-25T18:29:18.579Z,40.40
2023-05-25T18:31:20.689Z,40.50
2023-05-25T18:33:22.522Z,40.70
2023-05-25T18:35:24.691Z,40.70
2023-05-25T18:37:27.437Z,40.80
2023-05-25T18:39:29.333Z,41.00
2023-05-25T18:41:31.238Z,41.10
2023-05-25T18:43:33.022Z,41.20
2023-05-25T18:45:34.859Z,41.30
2023-05-25T18:47:36.677Z,41.40
2023-05-25T18:49:38.819Z,41.50
2023-05-25T18:51:40.826Z,41.60
2023-05-25T18:53:42.977Z,41.80
2023-05-25T18:55:44.990Z,41.80
2023-05-25T18:57:47.049Z,41.90
2023-05-25T18:59:49.175Z,42.00
2023-05-25T19:01:51.396Z,42.00
2023-05-25T19:03:54.757Z,42.10
2023-05-25T19:05:58.258Z,42.20
2023-05-25T19:08:00.330Z,42.40
2023-05-25T19:10:02.117Z,42.40
2023-05-25T19:12:04.749Z,42.50
2023-05-25T19:14:06.673Z,42.60
2023-05-25T19:16:08.644Z,42.70
2023-05-25T19:18:10.748Z,42.70
2023-05-25T19:20:12.678Z,42.80
2023-05-25T19:22:14.573Z,42.80
2023-05-25T19:24:18.568Z,43.00
2023-05-25T19:26:20.347Z,43.10
2023-05-25T19:28:22.109Z,43.10
2023-05-25T19:30:24.092Z,43.10
2023-05-25T19:32:26.249Z,43.20
2023-05-25T19:34:28.303Z,43.20
2023-05-25T19:36:30.190Z,43.40
2023-05-25T19:38:41.340Z,43.50
2023-05-25T19:40:44.095Z,43.60
2023-05-25T19:42:46.054Z,43.50
2023-05-25T19:44:47.890Z,43.60
2023-05-25T19:46:49.771Z,43.60
2023-05-25T19:48:51.774Z,43.70
2023-05-25T19:50:53.620Z,43.70
2023-05-25T19:52:55.432Z,43.90
2023-05-25T19:54:57.196Z,43.90
2023-05-25T19:56:58.911Z,44.10
2023-05-25T19:59:00.814Z,44.10
2023-05-25T20:01:02.626Z,44.20
2023-05-25T20:03:04.593Z,44.20
2023-05-25T20:05:06.606Z,44.20
2023-05-25T20:07:08.491Z,44.20
2023-05-25T20:09:12.590Z,44.40
2023-05-25T20:11:14.386Z,44.40
2023-05-25T20:13:16.132Z,44.50
2023-05-25T20:15:17.966Z,44.30
2023-05-25T20:17:19.824Z,44.30
2023-05-25T20:19:22.542Z,44.60
2023-05-25T20:21:25.042Z,44.60
2023-05-25T20:23:26.823Z,44.70
2023-05-25T20:25:28.829Z,44.80
2023-05-25T20:27:30.731Z,44.80
2023-05-25T20:29:32.683Z,44.80
2023-05-25T20:31:34.594Z,44.80
2023-05-25T20:33:36.405Z,45.10
2023-05-25T20:35:38.227Z,45.00
2023-05-25T20:37:39.986Z,45.10
2023-05-25T20:39:41.799Z,45.10
2023-05-25T20:41:44.058Z,45.20
2023-05-25T20:43:46.002Z,45.40
2023-05-25T20:45:48.017Z,45.40
2023-05-25T20:47:58.518Z,45.40
2023-05-25T20:50:00.301Z,45.40
2023-05-25T20:52:02.213Z,45.50
2023-05-25T20:54:04.115Z,45.50
2023-05-25T20:56:06.102Z,45.60
2023-05-25T20:58:07.910Z,45.50
2023-05-25T21:00:10.107Z,45.60
2023-05-25T21:02:11.968Z,45.50
2023-05-25T21:04:13.694Z,45.70
2023-05-25T21:06:15.502Z,45.80
2023-05-25T21:08:17.251Z,45.60
2023-05-25T21:10:19.004Z,45.80
2023-05-25T21:12:22.587Z,45.80
2023-05-25T21:14:24.299Z,45.70
2023-05-25T21:16:26.157Z,45.80
2023-05-25T21:18:27.872Z,45.80
2023-05-25T21:20:29.647Z,45.90
2023-05-25T21:22:31.610Z,46.00
2023-05-25T21:24:33.501Z,46.00
2023-05-25T21:26:35.336Z,46.00
2023-05-25T21:28:37.177Z,46.30
2023-05-25T21:30:38.922Z,46.40
2023-05-25T21:32:40.927Z,46.20
2023-05-25T21:34:42.758Z,46.30
2023-05-25T21:36:44.495Z,46.30
2023-05-25T21:38:46.549Z,46.40
2023-05-25T21:40:48.293Z,46.40
2023-05-25T21:42:53.193Z,46.30
2023-05-25T21:44:55.418Z,46.40
2023-05-25T21:46:57.261Z,46.30
2023-05-25T21:48:59.033Z,46.60
2023-05-25T21:51:00.903Z,46.60
2023-05-25T21:53:02.685Z,46.60
2023-05-25T21:55:04.635Z,46.50
2023-05-25T21:57:06.540Z,46.70
2023-05-25T21:59:08.224Z,46.70
2023-05-25T22:01:10.055Z,46.70
2023-05-25T22:03:12.048Z,46.90
2023-05-25T22:05:15.547Z,46.70
2023-05-25T22:07:17.345Z,46.70
2023-05-25T22:09:19.068Z,46.70
2023-05-25T22:11:22.268Z,46.70
2023-05-25T22:13:24.008Z,46.70
2023-05-25T22:15:26.097Z,47.10
2023-05-25T22:17:27.826Z,46.90
2023-05-25T22:19:29.588Z,46.90
2023-05-25T22:21:31.313Z,47.00
2023-05-25T22:23:33.103Z,47.10
2023-05-25T22:25:34.837Z,47.30
2023-05-25T22:27:36.934Z,47.20
2023-05-25T22:29:38.644Z,47.30
2023-05-25T22:31:41.162Z,47.20
2023-05-25T22:33:42.896Z,47.40
2023-05-25T22:35:44.782Z,47.30
2023-05-25T22:37:46.744Z,47.30
2023-05-25T22:39:48.891Z,47.30
2023-05-25T22:41:50.633Z,47.40
2023-05-25T22:43:52.333Z,47.50
2023-05-25T22:45:54.133Z,47.60
2023-05-25T22:47:55.866Z,47.30
2023-05-25T22:49:57.586Z,47.40
2023-05-25T22:51:59.314Z,47.90
2023-05-25T22:54:01.052Z,48.00
2023-05-25T22:56:02.779Z,47.70
2023-05-25T22:58:04.437Z,47.60
2023-05-25T23:00:06.563Z,47.70
2023-05-25T23:02:08.456Z,47.60
2023-05-25T23:04:10.520Z,47.90
2023-05-25T23:06:12.439Z,48.40
2023-05-25T23:08:14.145Z,47.80
2023-05-25T23:10:16.009Z,48.10
2023-05-25T23:12:17.834Z,48.10
2023-05-25T23:14:20.706Z,48.30
2023-05-25T23:16:22.671Z,48.00
2023-05-25T23:18:24.399Z,48.40
2023-05-25T23:20:26.139Z,48.70
2023-05-25T23:22:27.969Z,48.20
2023-05-25T23:24:29.672Z,48.10
2023-05-25T23:26:31.441Z,48.00
2023-05-25T23:28:33.249Z,48.10
2023-05-25T23:30:35.011Z,48.10
2023-05-25T23:32:36.785Z,48.20
2023-05-25T23:34:38.519Z,48.60
2023-05-25T23:36:40.541Z,48.30
2023-05-25T23:38:42.675Z,48.20
2023-05-25T23:40:44.469Z,48.30
2023-05-25T23:42:46.254Z,48.30
2023-05-25T23:44:47.942Z,48.40
2023-05-25T23:46:49.636Z,48.30
2023-05-25T23:48:51.276Z,48.50
2023-05-25T23:50:52.937Z,48.50
2023-05-25T23:52:54.623Z,48.90
2023-05-25T23:54:56.516Z,48.50
2023-05-25T23:56:58.192Z,48.90
2023-05-25T23:58:59.857Z,49.30
